sensor_id;sensor_type;location;lat;lon;timestamp;P1;durP1;ratioP1;P2;durP2;ratioP2
70866;SDS011;58487;53.474;49.470;2022-08-01T00:01:30;16.37;;;10.00;;
70866;SDS011;58487;53.474;49.470;2022-08-01T00:03:57;21.05;;;10.90;;
70866;SDS011;58487;53.474;49.470;2022-08-01T00:06:23;16.08;;;10.02;;
70866;SDS011;58487;53.474;49.470;2022-08-01T00:08:49;19.45;;;10.32;;
70866;SDS011;58487;53.474;49.470;2022-08-01T00:11:15;17.40;;;10.95;;
70866;SDS011;58487;53.474;49.470;2022-08-01T00:13:41;16.03;;;10.37;;
70866;SDS011;58487;53.474;49.470;2022-08-01T00:16:09;20.77;;;10.68;;
70866;SDS011;58487;53.474;49.470;2022-08-01T00:18:35;16.00;;;10.68;;
70866;SDS011;58487;53.474;49.470;2022-08-01T00:21:02;18.67;;;10.90;;
70866;SDS011;58487;53.474;49.470;2022-08-01T00:23:34;19.88;;;11.10;;
70866;SDS011;58487;53.474;49.470;2022-08-01T00:26:00;19.73;;;11.13;;
70866;SDS011;58487;53.474;49.470;2022-08-01T00:28:27;22.17;;;12.60;;
70866;SDS011;58487;53.474;49.470;2022-08-01T00:30:53;21.80;;;11.82;;
70866;SDS011;58487;53.474;49.470;2022-08-01T00:33:19;19.80;;;11.88;;
70866;SDS011;58487;53.474;49.470;2022-08-01T00:35:45;22.55;;;12.98;;
70866;SDS011;58487;53.474;49.470;2022-08-01T00:38:11;24.83;;;12.70;;
70866;SDS011;58487;53.474;49.470;2022-08-01T00:40:37;23.83;;;12.45;;
70866;SDS011;58487;53.474;49.470;2022-08-01T00:43:03;26.58;;;13.10;;
70866;SDS011;58487;53.474;49.470;2022-08-01T00:45:29;24.58;;;13.27;;
70866;SDS011;58487;53.474;49.470;2022-08-01T00:47:55;26.25;;;12.90;;
70866;SDS011;58487;53.474;49.470;2022-08-01T00:50:22;24.17;;;12.60;;
70866;SDS011;58487;53.474;49.470;2022-08-01T00:52:49;21.45;;;12.10;;
70866;SDS011;58487;53.474;49.470;2022-08-01T00:55:22;20.17;;;12.13;;
70866;SDS011;58487;53.474;49.470;2022-08-01T00:57:50;23.38;;;12.88;;
70866;SDS011;58487;53.474;49.470;2022-08-01T01:00:17;23.20;;;12.63;;
70866;SDS011;58487;53.474;49.470;2022-08-01T01:02:46;21.77;;;12.70;;
70866;SDS011;58487;53.474;49.470;2022-08-01T01:05:12;20.35;;;11.95;;
70866;SDS011;58487;53.474;49.470;2022-08-01T01:07:40;21.23;;;13.05;;
70866;SDS011;58487;53.474;49.470;2022-08-01T01:10:22;25.17;;;12.98;;
70866;SDS011;58487;53.474;49.470;2022-08-01T01:13:18;20.27;;;12.38;;
70866;SDS011;58487;53.474;49.470;2022-08-01T01:15:50;21.33;;;11.93;;
70866;SDS011;58487;53.474;49.470;2022-08-01T01:18:39;21.05;;;12.20;;
70866;SDS011;58487;53.474;49.470;2022-08-01T01:26:26;25.98;;;12.30;;
70866;SDS011;58487;53.474;49.470;2022-08-01T01:29:16;24.67;;;11.93;;
70866;SDS011;58487;53.474;49.470;2022-08-01T01:32:06;18.15;;;11.18;;
70866;SDS011;58487;53.474;49.470;2022-08-01T01:34:32;20.38;;;11.20;;
70866;SDS011;58487;53.474;49.470;2022-08-01T01:37:02;18.58;;;11.40;;
70866;SDS011;58487;53.474;49.470;2022-08-01T01:39:31;17.00;;;10.95;;
70866;SDS011;58487;53.474;49.470;2022-08-01T01:42:00;20.20;;;10.80;;
70866;SDS011;58487;53.474;49.470;2022-08-01T01:44:33;21.25;;;10.77;;
70866;SDS011;58487;53.474;49.470;2022-08-01T01:47:04;21.98;;;11.68;;
70866;SDS011;58487;53.474;49.470;2022-08-01T01:49:30;20.67;;;10.68;;
70866;SDS011;58487;53.474;49.470;2022-08-01T01:51:58;14.88;;;10.30;;
70866;SDS011;58487;53.474;49.470;2022-08-01T01:54:35;16.87;;;10.07;;
70866;SDS011;58487;53.474;49.470;2022-08-01T01:57:10;14.93;;;9.48;;
70866;SDS011;58487;53.474;49.470;2022-08-01T01:59:38;18.95;;;9.70;;
70866;SDS011;58487;53.474;49.470;2022-08-01T02:02:06;14.85;;;9.05;;
70866;SDS011;58487;53.474;49.470;2022-08-01T02:04:36;15.90;;;9.18;;
70866;SDS011;58487;53.474;49.470;2022-08-01T02:07:05;14.40;;;8.90;;
70866;SDS011;58487;53.474;49.470;2022-08-01T02:09:34;14.50;;;9.15;;
70866;SDS011;58487;53.474;49.470;2022-08-01T02:12:03;14.43;;;8.70;;
70866;SDS011;58487;53.474;49.470;2022-08-01T02:14:32;14.15;;;8.60;;
70866;SDS011;58487;53.474;49.470;2022-08-01T02:17:03;15.48;;;8.73;;
70866;SDS011;58487;53.474;49.470;2022-08-01T02:19:33;12.00;;;8.40;;
70866;SDS011;58487;53.474;49.470;2022-08-01T02:22:08;11.15;;;7.68;;
70866;SDS011;58487;53.474;49.470;2022-08-01T02:24:45;13.27;;;7.50;;
70866;SDS011;58487;53.474;49.470;2022-08-01T02:27:55;13.35;;;7.80;;
70866;SDS011;58487;53.474;49.470;2022-08-01T02:30:37;11.68;;;7.38;;
70866;SDS011;58487;53.474;49.470;2022-08-01T02:33:05;11.90;;;8.10;;
70866;SDS011;58487;53.474;49.470;2022-08-01T02:35:37;11.93;;;7.60;;
70866;SDS011;58487;53.474;49.470;2022-08-01T02:38:06;11.82;;;7.53;;
70866;SDS011;58487;53.474;49.470;2022-08-01T02:40:38;12.15;;;7.03;;
70866;SDS011;58487;53.474;49.470;2022-08-01T02:43:09;13.63;;;7.63;;
70866;SDS011;58487;53.474;49.470;2022-08-01T02:45:39;12.47;;;7.40;;
70866;SDS011;58487;53.474;49.470;2022-08-01T02:48:13;13.80;;;7.10;;
70866;SDS011;58487;53.474;49.470;2022-08-01T02:50:42;11.52;;;7.30;;
70866;SDS011;58487;53.474;49.470;2022-08-01T02:53:11;13.35;;;7.80;;
70866;SDS011;58487;53.474;49.470;2022-08-01T02:55:38;11.00;;;7.63;;
70866;SDS011;58487;53.474;49.470;2022-08-01T02:58:06;10.67;;;7.33;;
70866;SDS011;58487;53.474;49.470;2022-08-01T03:00:34;10.98;;;7.22;;
70866;SDS011;58487;53.474;49.470;2022-08-01T03:03:01;10.15;;;7.20;;
70866;SDS011;58487;53.474;49.470;2022-08-01T03:05:28;13.07;;;9.15;;
70866;SDS011;58487;53.474;49.470;2022-08-01T03:07:57;14.05;;;7.20;;
70866;SDS011;58487;53.474;49.470;2022-08-01T03:10:26;11.93;;;7.33;;
70866;SDS011;58487;53.474;49.470;2022-08-01T03:12:54;15.60;;;8.07;;
70866;SDS011;58487;53.474;49.470;2022-08-01T03:15:21;10.43;;;6.88;;
70866;SDS011;58487;53.474;49.470;2022-08-01T03:17:49;10.70;;;6.90;;
70866;SDS011;58487;53.474;49.470;2022-08-01T03:20:18;14.38;;;7.93;;
70866;SDS011;58487;53.474;49.470;2022-08-01T03:22:47;12.73;;;7.70;;
70866;SDS011;58487;53.474;49.470;2022-08-01T03:25:17;13.63;;;8.27;;
70866;SDS011;58487;53.474;49.470;2022-08-01T03:27:45;17.10;;;8.32;;
70866;SDS011;58487;53.474;49.470;2022-08-01T03:30:17;14.38;;;7.90;;
70866;SDS011;58487;53.474;49.470;2022-08-01T03:32:43;15.45;;;8.90;;
70866;SDS011;58487;53.474;49.470;2022-08-01T03:35:09;19.60;;;10.30;;
70866;SDS011;58487;53.474;49.470;2022-08-01T03:37:42;19.58;;;10.73;;
70866;SDS011;58487;53.474;49.470;2022-08-01T03:40:13;19.63;;;9.65;;
70866;SDS011;58487;53.474;49.470;2022-08-01T03:42:50;33.90;;;13.95;;
70866;SDS011;58487;53.474;49.470;2022-08-01T03:45:39;31.67;;;13.13;;
70866;SDS011;58487;53.474;49.470;2022-08-01T03:48:09;28.17;;;14.43;;
70866;SDS011;58487;53.474;49.470;2022-08-01T03:50:42;26.52;;;13.52;;
70866;SDS011;58487;53.474;49.470;2022-08-01T03:53:12;26.17;;;13.68;;
70866;SDS011;58487;53.474;49.470;2022-08-01T03:55:40;25.52;;;12.68;;
70866;SDS011;58487;53.474;49.470;2022-08-01T03:58:09;31.25;;;13.85;;
70866;SDS011;58487;53.474;49.470;2022-08-01T04:00:38;25.40;;;12.53;;
70866;SDS011;58487;53.474;49.470;2022-08-01T04:03:09;19.95;;;11.75;;
70866;SDS011;58487;53.474;49.470;2022-08-01T04:05:42;22.25;;;11.80;;
70866;SDS011;58487;53.474;49.470;2022-08-01T04:08:09;22.55;;;12.23;;
70866;SDS011;58487;53.474;49.470;2022-08-01T04:10:36;19.75;;;10.27;;
70866;SDS011;58487;53.474;49.470;2022-08-01T04:13:02;16.53;;;10.30;;
70866;SDS011;58487;53.474;49.470;2022-08-01T04:15:28;19.38;;;10.80;;
70866;SDS011;58487;53.474;49.470;2022-08-01T04:17:54;19.63;;;10.77;;
70866;SDS011;58487;53.474;49.470;2022-08-01T04:20:21;32.10;;;15.00;;
70866;SDS011;58487;53.474;49.470;2022-08-01T04:22:47;27.83;;;14.00;;
70866;SDS011;58487;53.474;49.470;2022-08-01T04:25:25;26.97;;;13.20;;
70866;SDS011;58487;53.474;49.470;2022-08-01T04:27:55;35.13;;;16.33;;
70866;SDS011;58487;53.474;49.470;2022-08-01T04:30:24;29.83;;;14.48;;
70866;SDS011;58487;53.474;49.470;2022-08-01T04:32:55;31.65;;;15.70;;
70866;SDS011;58487;53.474;49.470;2022-08-01T04:35:24;34.13;;;16.30;;
70866;SDS011;58487;53.474;49.470;2022-08-01T04:37:52;32.33;;;14.83;;
70866;SDS011;58487;53.474;49.470;2022-08-01T04:40:19;33.45;;;15.75;;
70866;SDS011;58487;53.474;49.470;2022-08-01T04:42:47;34.83;;;16.08;;
70866;SDS011;58487;53.474;49.470;2022-08-01T04:45:15;32.20;;;15.68;;
70866;SDS011;58487;53.474;49.470;2022-08-01T04:47:42;31.13;;;15.68;;
70866;SDS011;58487;53.474;49.470;2022-08-01T04:50:09;36.47;;;16.57;;
70866;SDS011;58487;53.474;49.470;2022-08-01T04:52:37;34.88;;;16.80;;
70866;SDS011;58487;53.474;49.470;2022-08-01T04:55:04;29.48;;;16.13;;
70866;SDS011;58487;53.474;49.470;2022-08-01T04:57:39;32.88;;;16.50;;
70866;SDS011;58487;53.474;49.470;2022-08-01T05:00:08;31.50;;;16.42;;
70866;SDS011;58487;53.474;49.470;2022-08-01T05:02:35;36.07;;;17.30;;
70866;SDS011;58487;53.474;49.470;2022-08-01T05:05:02;29.58;;;15.98;;
70866;SDS011;58487;53.474;49.470;2022-08-01T05:07:28;34.13;;;15.73;;
70866;SDS011;58487;53.474;49.470;2022-08-01T05:09:57;34.72;;;15.73;;
70866;SDS011;58487;53.474;49.470;2022-08-01T05:12:23;32.70;;;15.98;;
70866;SDS011;58487;53.474;49.470;2022-08-01T05:14:49;34.40;;;16.90;;
70866;SDS011;58487;53.474;49.470;2022-08-01T05:17:16;27.90;;;15.25;;
70866;SDS011;58487;53.474;49.470;2022-08-01T05:19:42;30.20;;;15.80;;
70866;SDS011;58487;53.474;49.470;2022-08-01T05:22:08;36.53;;;17.23;;
70866;SDS011;58487;53.474;49.470;2022-08-01T05:24:36;31.58;;;16.42;;
70866;SDS011;58487;53.474;49.470;2022-08-01T05:27:04;32.07;;;16.40;;
70866;SDS011;58487;53.474;49.470;2022-08-01T05:29:33;36.33;;;16.58;;
70866;SDS011;58487;53.474;49.470;2022-08-01T05:32:00;32.72;;;16.60;;
70866;SDS011;58487;53.474;49.470;2022-08-01T05:34:27;32.08;;;17.48;;
70866;SDS011;58487;53.474;49.470;2022-08-01T05:36:53;32.10;;;16.52;;
70866;SDS011;58487;53.474;49.470;2022-08-01T05:39:20;35.73;;;17.33;;
70866;SDS011;58487;53.474;49.470;2022-08-01T05:41:46;35.30;;;17.92;;
70866;SDS011;58487;53.474;49.470;2022-08-01T05:44:12;41.33;;;18.48;;
70866;SDS011;58487;53.474;49.470;2022-08-01T05:46:38;29.77;;;15.73;;
70866;SDS011;58487;53.474;49.470;2022-08-01T05:49:04;29.58;;;14.85;;
70866;SDS011;58487;53.474;49.470;2022-08-01T05:51:31;30.27;;;14.90;;
70866;SDS011;58487;53.474;49.470;2022-08-01T05:53:57;32.92;;;14.98;;
70866;SDS011;58487;53.474;49.470;2022-08-01T05:56:24;37.00;;;17.10;;
70866;SDS011;58487;53.474;49.470;2022-08-01T05:58:50;35.03;;;16.17;;
70866;SDS011;58487;53.474;49.470;2022-08-01T06:01:19;28.58;;;15.40;;
70866;SDS011;58487;53.474;49.470;2022-08-01T06:03:46;29.23;;;14.97;;
70866;SDS011;58487;53.474;49.470;2022-08-01T06:06:12;24.33;;;14.38;;
70866;SDS011;58487;53.474;49.470;2022-08-01T06:08:42;23.50;;;12.90;;
70866;SDS011;58487;53.474;49.470;2022-08-01T06:11:08;25.40;;;13.73;;
70866;SDS011;58487;53.474;49.470;2022-08-01T06:13:34;25.17;;;13.43;;
70866;SDS011;58487;53.474;49.470;2022-08-01T06:16:00;21.63;;;12.67;;
70866;SDS011;58487;53.474;49.470;2022-08-01T06:18:26;27.75;;;13.75;;
70866;SDS011;58487;53.474;49.470;2022-08-01T06:20:52;28.17;;;13.32;;
70866;SDS011;58487;53.474;49.470;2022-08-01T06:23:19;22.85;;;12.02;;
70866;SDS011;58487;53.474;49.470;2022-08-01T06:25:46;24.80;;;12.55;;
70866;SDS011;58487;53.474;49.470;2022-08-01T06:28:14;21.27;;;11.67;;
70866;SDS011;58487;53.474;49.470;2022-08-01T06:30:40;20.73;;;11.40;;
70866;SDS011;58487;53.474;49.470;2022-08-01T06:33:06;20.60;;;10.10;;
70866;SDS011;58487;53.474;49.470;2022-08-01T06:35:32;21.15;;;11.35;;
70866;SDS011;58487;53.474;49.470;2022-08-01T06:37:58;17.77;;;10.80;;
70866;SDS011;58487;53.474;49.470;2022-08-01T06:40:24;20.13;;;10.70;;
70866;SDS011;58487;53.474;49.470;2022-08-01T06:42:51;18.85;;;10.80;;
70866;SDS011;58487;53.474;49.470;2022-08-01T06:45:20;19.90;;;9.65;;
70866;SDS011;58487;53.474;49.470;2022-08-01T06:47:52;15.98;;;10.45;;
70866;SDS011;58487;53.474;49.470;2022-08-01T06:50:18;18.98;;;10.68;;
70866;SDS011;58487;53.474;49.470;2022-08-01T06:52:46;17.20;;;10.10;;
70866;SDS011;58487;53.474;49.470;2022-08-01T06:55:13;18.10;;;10.82;;
70866;SDS011;58487;53.474;49.470;2022-08-01T06:57:50;17.98;;;11.38;;
70866;SDS011;58487;53.474;49.470;2022-08-01T07:00:17;21.40;;;11.52;;
70866;SDS011;58487;53.474;49.470;2022-08-01T07:02:51;18.85;;;11.55;;
70866;SDS011;58487;53.474;49.470;2022-08-01T07:05:21;20.93;;;11.30;;
70866;SDS011;58487;53.474;49.470;2022-08-01T07:07:48;21.65;;;10.68;;
70866;SDS011;58487;53.474;49.470;2022-08-01T07:10:15;16.85;;;10.57;;
70866;SDS011;58487;53.474;49.470;2022-08-01T07:12:41;18.50;;;11.75;;
70866;SDS011;58487;53.474;49.470;2022-08-01T07:15:08;17.27;;;10.60;;
70866;SDS011;58487;53.474;49.470;2022-08-01T07:17:39;17.80;;;11.17;;
70866;SDS011;58487;53.474;49.470;2022-08-01T07:20:11;20.83;;;11.18;;
70866;SDS011;58487;53.474;49.470;2022-08-01T07:22:37;17.02;;;11.15;;
70866;SDS011;58487;53.474;49.470;2022-08-01T07:25:04;18.63;;;11.27;;
70866;SDS011;58487;53.474;49.470;2022-08-01T07:27:31;21.90;;;13.25;;
70866;SDS011;58487;53.474;49.470;2022-08-01T07:29:57;20.10;;;11.60;;
70866;SDS011;58487;53.474;49.470;2022-08-01T07:32:23;18.48;;;11.32;;
70866;SDS011;58487;53.474;49.470;2022-08-01T07:34:50;21.02;;;11.20;;
70866;SDS011;58487;53.474;49.470;2022-08-01T07:37:16;20.70;;;12.32;;
70866;SDS011;58487;53.474;49.470;2022-08-01T07:39:42;20.30;;;11.23;;
70866;SDS011;58487;53.474;49.470;2022-08-01T07:42:08;20.47;;;11.40;;
70866;SDS011;58487;53.474;49.470;2022-08-01T07:44:35;22.27;;;11.70;;
70866;SDS011;58487;53.474;49.470;2022-08-01T07:47:01;16.95;;;11.40;;
70866;SDS011;58487;53.474;49.470;2022-08-01T07:49:28;19.05;;;11.15;;
70866;SDS011;58487;53.474;49.470;2022-08-01T07:51:54;14.48;;;10.23;;
70866;SDS011;58487;53.474;49.470;2022-08-01T07:54:21;15.07;;;9.93;;
70866;SDS011;58487;53.474;49.470;2022-08-01T07:56:49;15.93;;;9.00;;
70866;SDS011;58487;53.474;49.470;2022-08-01T07:59:16;15.68;;;9.75;;
70866;SDS011;58487;53.474;49.470;2022-08-01T08:01:48;16.13;;;9.77;;
70866;SDS011;58487;53.474;49.470;2022-08-01T08:04:16;24.52;;;9.25;;
70866;SDS011;58487;53.474;49.470;2022-08-01T08:06:43;16.67;;;9.40;;
70866;SDS011;58487;53.474;49.470;2022-08-01T08:09:10;13.27;;;9.32;;
70866;SDS011;58487;53.474;49.470;2022-08-01T08:11:36;12.75;;;9.30;;
70866;SDS011;58487;53.474;49.470;2022-08-01T08:14:02;15.57;;;8.95;;
70866;SDS011;58487;53.474;49.470;2022-08-01T08:16:28;13.07;;;9.35;;
70866;SDS011;58487;53.474;49.470;2022-08-01T08:18:54;28.77;;;10.93;;
70866;SDS011;58487;53.474;49.470;2022-08-01T08:21:20;15.52;;;9.50;;
70866;SDS011;58487;53.474;49.470;2022-08-01T08:23:46;14.55;;;9.25;;
70866;SDS011;58487;53.474;49.470;2022-08-01T08:26:31;13.77;;;8.43;;
70866;SDS011;58487;53.474;49.470;2022-08-01T08:28:57;15.85;;;8.63;;
70866;SDS011;58487;53.474;49.470;2022-08-01T08:31:23;15.93;;;8.97;;
70866;SDS011;58487;53.474;49.470;2022-08-01T08:33:49;18.17;;;9.20;;
70866;SDS011;58487;53.474;49.470;2022-08-01T08:36:15;17.20;;;9.40;;
70866;SDS011;58487;53.474;49.470;2022-08-01T08:38:41;13.88;;;8.60;;
70866;SDS011;58487;53.474;49.470;2022-08-01T08:41:08;13.30;;;8.95;;
70866;SDS011;58487;53.474;49.470;2022-08-01T08:43:35;18.43;;;9.40;;
70866;SDS011;58487;53.474;49.470;2022-08-01T08:46:01;16.02;;;9.23;;
70866;SDS011;58487;53.474;49.470;2022-08-01T08:48:27;16.73;;;8.63;;
70866;SDS011;58487;53.474;49.470;2022-08-01T08:50:55;11.60;;;8.45;;
70866;SDS011;58487;53.474;49.470;2022-08-01T08:53:23;12.57;;;8.52;;
70866;SDS011;58487;53.474;49.470;2022-08-01T08:55:50;14.50;;;8.43;;
70866;SDS011;58487;53.474;49.470;2022-08-01T08:58:16;15.20;;;8.43;;
70866;SDS011;58487;53.474;49.470;2022-08-01T09:00:44;12.48;;;8.25;;
70866;SDS011;58487;53.474;49.470;2022-08-01T09:03:11;13.93;;;8.23;;
70866;SDS011;58487;53.474;49.470;2022-08-01T09:05:37;13.15;;;8.20;;
70866;SDS011;58487;53.474;49.470;2022-08-01T09:08:06;13.60;;;7.87;;
70866;SDS011;58487;53.474;49.470;2022-08-01T09:10:33;15.80;;;8.60;;
70866;SDS011;58487;53.474;49.470;2022-08-01T09:13:17;16.75;;;9.32;;
70866;SDS011;58487;53.474;49.470;2022-08-01T09:15:47;13.55;;;8.88;;
70866;SDS011;58487;53.474;49.470;2022-08-01T09:21:08;13.63;;;8.13;;
70866;SDS011;58487;53.474;49.470;2022-08-01T09:23:39;15.30;;;8.57;;
70866;SDS011;58487;53.474;49.470;2022-08-01T09:26:18;16.40;;;9.00;;
70866;SDS011;58487;53.474;49.470;2022-08-01T09:28:46;17.73;;;8.50;;
70866;SDS011;58487;53.474;49.470;2022-08-01T09:31:17;11.25;;;7.43;;
70866;SDS011;58487;53.474;49.470;2022-08-01T09:36:23;13.30;;;8.23;;
70866;SDS011;58487;53.474;49.470;2022-08-01T09:38:51;11.75;;;7.95;;
70866;SDS011;58487;53.474;49.470;2022-08-01T09:41:29;20.75;;;8.98;;
70866;SDS011;58487;53.474;49.470;2022-08-01T09:43:59;13.85;;;8.07;;
70866;SDS011;58487;53.474;49.470;2022-08-01T09:46:25;10.70;;;7.67;;
70866;SDS011;58487;53.474;49.470;2022-08-01T09:48:55;12.93;;;7.80;;
70866;SDS011;58487;53.474;49.470;2022-08-01T09:51:30;11.85;;;7.32;;
70866;SDS011;58487;53.474;49.470;2022-08-01T09:54:03;13.05;;;7.55;;
70866;SDS011;58487;53.474;49.470;2022-08-01T09:56:40;16.00;;;7.88;;
70866;SDS011;58487;53.474;49.470;2022-08-01T09:59:08;14.95;;;11.02;;
70866;SDS011;58487;53.474;49.470;2022-08-01T10:01:41;16.57;;;11.80;;
70866;SDS011;58487;53.474;49.470;2022-08-01T10:04:13;11.75;;;7.60;;
70866;SDS011;58487;53.474;49.470;2022-08-01T10:06:41;11.85;;;7.45;;
70866;SDS011;58487;53.474;49.470;2022-08-01T10:09:10;11.85;;;7.28;;
70866;SDS011;58487;53.474;49.470;2022-08-01T10:11:37;13.77;;;7.15;;
70866;SDS011;58487;53.474;49.470;2022-08-01T10:14:05;11.53;;;7.10;;
70866;SDS011;58487;53.474;49.470;2022-08-01T10:16:33;12.97;;;7.37;;
70866;SDS011;58487;53.474;49.470;2022-08-01T10:19:03;10.38;;;6.80;;
70866;SDS011;58487;53.474;49.470;2022-08-01T10:21:32;10.18;;;6.60;;
70866;SDS011;58487;53.474;49.470;2022-08-01T10:24:02;11.43;;;7.22;;
70866;SDS011;58487;53.474;49.470;2022-08-01T10:26:31;10.63;;;7.90;;
70866;SDS011;58487;53.474;49.470;2022-08-01T10:28:59;15.70;;;8.70;;
70866;SDS011;58487;53.474;49.470;2022-08-01T10:31:27;14.88;;;8.20;;
70866;SDS011;58487;53.474;49.470;2022-08-01T10:33:57;13.30;;;8.13;;
70866;SDS011;58487;53.474;49.470;2022-08-01T10:36:23;10.55;;;7.68;;
70866;SDS011;58487;53.474;49.470;2022-08-01T10:38:50;10.35;;;6.97;;
70866;SDS011;58487;53.474;49.470;2022-08-01T10:41:17;12.33;;;7.50;;
70866;SDS011;58487;53.474;49.470;2022-08-01T10:43:44;9.93;;;7.72;;
70866;SDS011;58487;53.474;49.470;2022-08-01T10:46:10;12.27;;;7.65;;
70866;SDS011;58487;53.474;49.470;2022-08-01T10:48:46;12.00;;;7.60;;
70866;SDS011;58487;53.474;49.470;2022-08-01T10:51:27;13.65;;;8.40;;
70866;SDS011;58487;53.474;49.470;2022-08-01T10:53:54;14.10;;;8.30;;
70866;SDS011;58487;53.474;49.470;2022-08-01T10:56:21;16.98;;;8.48;;
70866;SDS011;58487;53.474;49.470;2022-08-01T10:58:47;14.50;;;8.75;;
70866;SDS011;58487;53.474;49.470;2022-08-01T11:04:26;11.90;;;8.40;;
70866;SDS011;58487;53.474;49.470;2022-08-01T11:08:59;12.10;;;7.83;;
70866;SDS011;58487;53.474;49.470;2022-08-01T11:11:30;12.85;;;8.55;;
70866;SDS011;58487;53.474;49.470;2022-08-01T11:16:39;12.50;;;7.63;;
70866;SDS011;58487;53.474;49.470;2022-08-01T11:19:06;11.73;;;7.35;;
70866;SDS011;58487;53.474;49.470;2022-08-01T11:27:15;10.80;;;7.45;;
70866;SDS011;58487;53.474;49.470;2022-08-01T11:29:43;12.32;;;8.15;;
70866;SDS011;58487;53.474;49.470;2022-08-01T11:32:27;11.73;;;7.82;;
70866;SDS011;58487;53.474;49.470;2022-08-01T11:34:54;13.70;;;8.00;;
70866;SDS011;58487;53.474;49.470;2022-08-01T11:37:24;12.27;;;8.30;;
70866;SDS011;58487;53.474;49.470;2022-08-01T11:42:40;14.68;;;8.10;;
70866;SDS011;58487;53.474;49.470;2022-08-01T11:45:06;13.00;;;8.73;;
70866;SDS011;58487;53.474;49.470;2022-08-01T11:47:45;17.65;;;9.15;;
70866;SDS011;58487;53.474;49.470;2022-08-01T11:50:30;13.03;;;8.30;;
70866;SDS011;58487;53.474;49.470;2022-08-01T11:53:00;13.75;;;8.30;;
70866;SDS011;58487;53.474;49.470;2022-08-01T11:55:28;11.02;;;7.97;;
70866;SDS011;58487;53.474;49.470;2022-08-01T11:58:01;12.77;;;8.05;;
70866;SDS011;58487;53.474;49.470;2022-08-01T12:00:29;11.65;;;8.40;;
70866;SDS011;58487;53.474;49.470;2022-08-01T12:05:26;14.52;;;8.10;;
70866;SDS011;58487;53.474;49.470;2022-08-01T12:07:54;12.93;;;7.85;;
70866;SDS011;58487;53.474;49.470;2022-08-01T12:10:22;12.57;;;7.77;;
70866;SDS011;58487;53.474;49.470;2022-08-01T12:12:54;15.23;;;7.43;;
70866;SDS011;58487;53.474;49.470;2022-08-01T12:15:23;16.40;;;7.80;;
70866;SDS011;58487;53.474;49.470;2022-08-01T12:17:59;13.32;;;7.93;;
70866;SDS011;58487;53.474;49.470;2022-08-01T12:20:31;14.48;;;7.50;;
70866;SDS011;58487;53.474;49.470;2022-08-01T12:23:08;14.23;;;8.30;;
70866;SDS011;58487;53.474;49.470;2022-08-01T12:25:37;11.80;;;6.70;;
70866;SDS011;58487;53.474;49.470;2022-08-01T12:28:06;12.63;;;8.20;;
70866;SDS011;58487;53.474;49.470;2022-08-01T12:30:34;11.60;;;7.47;;
70866;SDS011;58487;53.474;49.470;2022-08-01T12:33:02;11.25;;;7.25;;
70866;SDS011;58487;53.474;49.470;2022-08-01T12:35:29;12.50;;;8.02;;
70866;SDS011;58487;53.474;49.470;2022-08-01T12:37:57;14.15;;;7.90;;
70866;SDS011;58487;53.474;49.470;2022-08-01T12:40:26;11.23;;;7.00;;
70866;SDS011;58487;53.474;49.470;2022-08-01T12:42:58;11.97;;;7.60;;
70866;SDS011;58487;53.474;49.470;2022-08-01T12:45:36;10.95;;;6.95;;
70866;SDS011;58487;53.474;49.470;2022-08-01T12:48:08;13.50;;;7.63;;
70866;SDS011;58487;53.474;49.470;2022-08-01T12:50:37;11.32;;;6.93;;
70866;SDS011;58487;53.474;49.470;2022-08-01T12:53:04;14.77;;;6.78;;
70866;SDS011;58487;53.474;49.470;2022-08-01T12:55:31;11.33;;;6.87;;
70866;SDS011;58487;53.474;49.470;2022-08-01T12:58:07;12.95;;;7.00;;
70866;SDS011;58487;53.474;49.470;2022-08-01T13:00:35;10.93;;;6.60;;
70866;SDS011;58487;53.474;49.470;2022-08-01T13:03:05;16.95;;;8.15;;
70866;SDS011;58487;53.474;49.470;2022-08-01T13:08:17;16.83;;;9.07;;
70866;SDS011;58487;53.474;49.470;2022-08-01T13:10:44;17.98;;;9.27;;
70866;SDS011;58487;53.474;49.470;2022-08-01T13:13:12;18.15;;;9.38;;
70866;SDS011;58487;53.474;49.470;2022-08-01T13:15:39;22.35;;;9.73;;
70866;SDS011;58487;53.474;49.470;2022-08-01T13:18:28;20.23;;;10.00;;
70866;SDS011;58487;53.474;49.470;2022-08-01T13:21:12;24.90;;;11.60;;
70866;SDS011;58487;53.474;49.470;2022-08-01T13:23:41;25.30;;;10.20;;
70866;SDS011;58487;53.474;49.470;2022-08-01T13:29:36;25.92;;;10.60;;
70866;SDS011;58487;53.474;49.470;2022-08-01T13:32:14;17.98;;;9.30;;
70866;SDS011;58487;53.474;49.470;2022-08-01T13:34:47;13.17;;;7.50;;
70866;SDS011;58487;53.474;49.470;2022-08-01T13:37:13;14.20;;;7.77;;
70866;SDS011;58487;53.474;49.470;2022-08-01T13:39:43;12.32;;;7.00;;
70866;SDS011;58487;53.474;49.470;2022-08-01T13:42:10;12.38;;;6.32;;
70866;SDS011;58487;53.474;49.470;2022-08-01T13:44:37;10.10;;;6.72;;
70866;SDS011;58487;53.474;49.470;2022-08-01T13:47:04;10.73;;;7.25;;
70866;SDS011;58487;53.474;49.470;2022-08-01T13:49:30;14.47;;;7.57;;
70866;SDS011;58487;53.474;49.470;2022-08-01T13:51:57;13.73;;;7.60;;
70866;SDS011;58487;53.474;49.470;2022-08-01T13:54:23;13.40;;;7.45;;
70866;SDS011;58487;53.474;49.470;2022-08-01T13:56:50;12.13;;;7.07;;
70866;SDS011;58487;53.474;49.470;2022-08-01T13:59:16;15.27;;;6.88;;
70866;SDS011;58487;53.474;49.470;2022-08-01T14:01:43;11.30;;;6.63;;
70866;SDS011;58487;53.474;49.470;2022-08-01T14:04:09;10.53;;;5.90;;
70866;SDS011;58487;53.474;49.470;2022-08-01T14:06:35;11.50;;;6.73;;
70866;SDS011;58487;53.474;49.470;2022-08-01T14:09:03;11.70;;;6.05;;
70866;SDS011;58487;53.474;49.470;2022-08-01T14:11:30;12.20;;;6.43;;
70866;SDS011;58487;53.474;49.470;2022-08-01T14:13:56;12.25;;;6.50;;
70866;SDS011;58487;53.474;49.470;2022-08-01T14:16:22;12.60;;;7.22;;
70866;SDS011;58487;53.474;49.470;2022-08-01T14:18:48;12.33;;;6.90;;
70866;SDS011;58487;53.474;49.470;2022-08-01T14:21:15;10.43;;;6.10;;
70866;SDS011;58487;53.474;49.470;2022-08-01T14:23:42;13.27;;;6.70;;
70866;SDS011;58487;53.474;49.470;2022-08-01T14:26:08;15.15;;;6.45;;
70866;SDS011;58487;53.474;49.470;2022-08-01T14:28:35;10.68;;;6.25;;
70866;SDS011;58487;53.474;49.470;2022-08-01T14:31:02;12.85;;;6.43;;
70866;SDS011;58487;53.474;49.470;2022-08-01T14:33:28;15.33;;;7.27;;
70866;SDS011;58487;53.474;49.470;2022-08-01T14:35:56;17.83;;;7.13;;
70866;SDS011;58487;53.474;49.470;2022-08-01T14:38:28;18.65;;;7.45;;
70866;SDS011;58487;53.474;49.470;2022-08-01T14:40:54;13.60;;;6.53;;
70866;SDS011;58487;53.474;49.470;2022-08-01T14:43:21;15.23;;;6.65;;
70866;SDS011;58487;53.474;49.470;2022-08-01T14:46:18;17.23;;;6.45;;
70866;SDS011;58487;53.474;49.470;2022-08-01T14:48:47;17.03;;;6.93;;
70866;SDS011;58487;53.474;49.470;2022-08-01T14:51:35;12.03;;;6.10;;
70866;SDS011;58487;53.474;49.470;2022-08-01T14:54:08;15.48;;;6.43;;
70866;SDS011;58487;53.474;49.470;2022-08-01T14:57:04;16.73;;;7.15;;
70866;SDS011;58487;53.474;49.470;2022-08-01T14:59:55;11.45;;;5.70;;
70866;SDS011;58487;53.474;49.470;2022-08-01T15:02:25;18.77;;;6.63;;
70866;SDS011;58487;53.474;49.470;2022-08-01T15:04:55;12.87;;;5.80;;